Time;durP1;ratioP1;P1;durP2;ratioP2;P2;SDS_P1;SDS_P2;PMS_P1;PMS_P2;Temp;Humidity;BMP_temperature;BMP_pressure;BME280_temperature;BME280_humidity;BME280_pressure;Samples;Min_cycle;Max_cycle;Signal;HPM_P1;HPM_P2
2022/03/22 00:00:37;;;;;;;0.00;0.00;;;6.10;99.90;;;;;;5041531;28;20098;-60
2022/03/22 00:03:04;;;;;;;0.00;0.00;;;6.00;99.90;;;;;;5053176;28;21188;-59
2022/03/22 00:05:31;;;;;;;0.00;0.00;;;5.90;99.90;;;;;;5042636;28;20049;-59
2022/03/22 00:07:59;;;;;;;0.10;0.05;;;6.10;99.90;;;;;;5041978;28;20049;-59
2022/03/22 00:10:25;;;;;;;0.00;0.00;;;5.90;99.90;;;;;;5041333;28;20041;-60
2022/03/22 00:12:51;;;;;;;0.00;0.00;;;6.00;99.90;;;;;;5041949;28;20043;-60
2022/03/22 00:15:17;;;;;;;0.00;0.00;;;6.00;99.90;;;;;;5041138;28;20554;-60
2022/03/22 00:17:42;;;;;;;0.00;0.00;;;6.10;99.90;;;;;;5041944;28;20076;-60
2022/03/22 00:20:10;;;;;;;0.00;0.00;;;5.90;99.90;;;;;;5042259;28;20072;-60
2022/03/22 00:22:39;;;;;;;0.00;0.00;;;6.00;99.90;;;;;;5023899;28;20044;-60
2022/03/22 00:25:07;;;;;;;0.10;0.10;;;6.00;99.90;;;;;;5041966;28;20935;-60
2022/03/22 00:27:50;;;;;;;0.10;0.10;;;6.00;99.90;;;;;;5024231;28;20095;-59
2022/03/22 00:30:18;;;;;;;0.00;0.00;;;5.90;99.90;;;;;;5039871;28;20041;-59
2022/03/22 00:32:44;;;;;;;0.00;0.00;;;6.00;99.90;;;;;;5007014;28;20051;-60
2022/03/22 00:35:09;;;;;;;0.00;0.00;;;5.90;99.90;;;;;;5024198;28;20459;-60
2022/03/22 00:37:40;;;;;;;0.00;0.00;;;6.10;99.90;;;;;;5041044;28;20087;-61
2022/03/22 00:40:40;;;;;;;0.10;0.10;;;5.90;99.90;;;;;;5041730;28;20045;-60
2022/03/22 00:42:59;;;;;;;0.00;0.00;;;5.90;99.90;;;;;;5038283;28;20122;-60
2022/03/22 00:45:27;;;;;;;0.10;0.10;;;5.90;99.90;;;;;;5040996;28;20048;-59
2022/03/22 00:47:54;;;;;;;0.00;0.00;;;5.90;99.90;;;;;;5041331;28;20428;-60
2022/03/22 00:50:28;;;;;;;0.00;0.00;;;5.90;99.90;;;;;;5041514;28;20040;-59
2022/03/22 00:52:55;;;;;;;0.00;0.00;;;5.90;99.90;;;;;;5023365;28;20656;-60
2022/03/22 00:55:21;;;;;;;0.00;0.00;;;5.80;99.90;;;;;;5041490;28;20345;-60
2022/03/22 00:57:47;;;;;;;0.00;0.00;;;5.70;99.90;;;;;;5041112;28;20518;-59
2022/03/22 01:00:14;;;;;;;0.00;0.00;;;5.90;99.90;;;;;;5040356;28;20051;-60
2022/03/22 01:02:42;;;;;;;0.00;0.00;;;5.90;99.90;;;;;;5030986;28;20132;-61
2022/03/22 01:05:13;;;;;;;0.00;0.00;;;5.90;99.90;;;;;;5041284;28;20055;-60
2022/03/22 01:07:40;;;;;;;0.00;0.00;;;5.80;99.90;;;;;;5040825;28;20045;-62
2022/03/22 01:10:07;;;;;;;0.00;0.00;;;5.70;99.90;;;;;;5041729;28;20045;-60
2022/03/22 01:12:35;;;;;;;0.00;0.00;;;5.70;99.90;;;;;;5023763;28;20049;-59
2022/03/22 01:15:10;;;;;;;0.00;0.00;;;5.70;99.90;;;;;;5022494;28;20043;-59
2022/03/22 01:17:39;;;;;;;0.00;0.00;;;5.70;99.90;;;;;;5023511;28;20135;-60
2022/03/22 01:20:09;;;;;;;0.00;0.00;;;5.70;99.90;;;;;;5041681;28;20049;-61
2022/03/22 01:22:38;;;;;;;0.00;0.00;;;5.60;99.90;;;;;;5042502;28;20127;-60
2022/03/22 01:25:09;;;;;;;0.00;0.00;;;5.60;99.90;;;;;;5027814;28;20049;-60
2022/03/22 01:27:36;;;;;;;0.00;0.00;;;5.60;99.90;;;;;;5028175;28;20879;-61
2022/03/22 01:30:05;;;;;;;0.00;0.00;;;5.60;99.90;;;;;;5044449;28;20110;-59
2022/03/22 01:32:30;;;;;;;0.00;0.00;;;5.60;99.90;;;;;;5045310;28;20488;-59
2022/03/22 01:34:56;;;;;;;0.00;0.00;;;4.80;99.90;;;;;;5044699;28;20052;-59
2022/03/22 01:37:22;;;;;;;0.00;0.00;;;5.90;99.90;;;;;;5044669;28;20048;-59
2022/03/22 01:39:47;;;;;;;0.00;0.00;;;5.50;99.90;;;;;;5026931;28;20036;-59
2022/03/22 01:42:13;;;;;;;0.00;0.00;;;5.50;99.90;;;;;;5045165;28;20045;-59
2022/03/22 01:44:39;;;;;;;0.00;0.00;;;5.50;99.90;;;;;;5043747;28;20041;-61
2022/03/22 01:47:05;;;;;;;0.00;0.00;;;6.10;99.90;;;;;;5044017;28;20036;-60
2022/03/22 01:49:31;;;;;;;0.00;0.00;;;5.50;99.90;;;;;;5045526;28;20474;-59
2022/03/22 01:51:57;;;;;;;0.00;0.00;;;5.70;99.90;;;;;;5044718;28;20056;-59
2022/03/22 01:54:23;;;;;;;0.00;0.00;;;6.20;99.90;;;;;;5044965;28;20059;-59
2022/03/22 01:56:49;;;;;;;0.00;0.00;;;5.50;99.90;;;;;;5043809;28;20044;-59
2022/03/22 01:59:16;;;;;;;0.00;0.00;;;5.50;99.90;;;;;;5043822;28;20098;-59
2022/03/22 02:07:14;;;;;;;0.00;0.00;;;5.40;99.90;;;;;;5055301;22;20106;-60
2022/03/22 02:09:41;;;;;;;0.00;0.00;;;5.60;99.90;;;;;;5062518;28;20123;-59
2022/03/22 02:12:07;;;;;;;0.00;0.00;;;5.40;99.90;;;;;;5050091;28;20049;-59
2022/03/22 02:14:33;;;;;;;0.00;0.00;;;5.40;99.90;;;;;;5046709;28;20083;-59
2022/03/22 02:17:05;;;;;;;0.00;0.00;;;5.40;99.90;;;;;;5043932;28;20118;-60
2022/03/22 02:19:31;;;;;;;0.00;0.00;;;5.40;99.90;;;;;;5044859;28;20052;-59
2022/03/22 02:22:01;;;;;;;0.00;0.00;;;5.30;99.90;;;;;;5044328;28;20045;-59
2022/03/22 02:24:27;;;;;;;0.00;0.00;;;5.30;99.90;;;;;;5043749;28;20048;-59
2022/03/22 02:26:52;;;;;;;0.00;0.00;;;5.30;99.90;;;;;;5044168;28;20044;-59
2022/03/22 02:29:18;;;;;;;0.00;0.00;;;5.30;99.90;;;;;;5043828;28;20045;-59
2022/03/22 02:31:44;;;;;;;0.00;0.00;;;5.30;99.90;;;;;;5026284;28;20176;-59
2022/03/22 02:34:09;;;;;;;0.00;0.00;;;5.20;99.90;;;;;;5042761;28;20044;-59
2022/03/22 02:36:35;;;;;;;0.00;0.00;;;5.30;99.90;;;;;;5044066;28;20033;-60
2022/03/22 02:39:00;;;;;;;0.00;0.00;;;5.20;99.90;;;;;;5044100;28;20531;-59
2022/03/22 02:41:26;;;;;;;0.00;0.00;;;5.20;99.90;;;;;;5043811;28;20036;-59
2022/03/22 02:43:53;;;;;;;0.00;0.00;;;5.20;99.90;;;;;;5042854;28;20431;-59
2022/03/22 02:46:19;;;;;;;0.00;0.00;;;5.20;99.90;;;;;;5044156;28;20047;-59
2022/03/22 02:48:46;;;;;;;0.00;0.00;;;5.20;99.90;;;;;;5043622;28;20041;-59
2022/03/22 02:51:12;;;;;;;0.00;0.00;;;5.20;99.90;;;;;;5043345;28;20057;-59
2022/03/22 02:53:38;;;;;;;0.00;0.00;;;5.50;99.90;;;;;;5043563;28;20411;-59
2022/03/22 02:56:04;;;;;;;0.00;0.00;;;5.20;99.90;;;;;;5044198;28;20040;-60
2022/03/22 02:58:30;;;;;;;0.10;0.10;;;5.20;99.90;;;;;;5042749;28;20135;-60
2022/03/22 03:00:55;;;;;;;0.00;0.00;;;5.50;99.90;;;;;;5044974;28;20037;-60
2022/03/22 03:03:22;;;;;;;0.00;0.00;;;6.00;99.90;;;;;;5053252;28;20376;-60
2022/03/22 03:05:51;;;;;;;0.00;0.00;;;5.20;99.90;;;;;;5043584;28;20162;-60
2022/03/22 03:08:18;;;;;;;0.00;0.00;;;5.20;99.90;;;;;;5042635;28;20057;-60
2022/03/22 03:10:45;;;;;;;0.00;0.00;;;5.20;99.90;;;;;;5043373;28;20701;-60
2022/03/22 03:13:11;;;;;;;0.00;0.00;;;5.10;99.90;;;;;;5042444;28;20452;-60
2022/03/22 03:15:37;;;;;;;0.00;0.00;;;5.10;99.90;;;;;;5042088;28;20053;-60
2022/03/22 03:18:03;;;;;;;0.10;0.10;;;5.40;99.90;;;;;;5043463;28;20136;-60
2022/03/22 03:20:29;;;;;;;0.00;0.00;;;5.00;99.90;;;;;;5043622;28;20052;-60
2022/03/22 03:22:55;;;;;;;0.00;0.00;;;4.80;99.90;;;;;;5042723;28;20057;-60
2022/03/22 03:25:20;;;;;;;0.00;0.00;;;4.80;99.90;;;;;;5042976;28;20069;-60
2022/03/22 03:27:46;;;;;;;0.00;0.00;;;4.80;99.90;;;;;;5042801;28;20060;-60
2022/03/22 03:30:13;;;;;;;0.00;0.00;;;4.70;99.90;;;;;;5042514;28;20636;-60
2022/03/22 03:32:39;;;;;;;0.00;0.00;;;4.70;99.90;;;;;;5024651;28;20450;-62
2022/03/22 03:35:05;;;;;;;0.00;0.00;;;4.70;99.90;;;;;;5043338;28;20041;-61
2022/03/22 03:37:35;;;;;;;0.10;0.10;;;4.80;99.90;;;;;;5043202;28;20036;-60
2022/03/22 03:40:01;;;;;;;0.00;0.00;;;4.70;99.90;;;;;;5043415;28;20037;-60
2022/03/22 03:42:27;;;;;;;0.00;0.00;;;4.70;99.90;;;;;;5042693;28;20041;-60
2022/03/22 03:47:37;;;;;;;0.00;0.00;;;4.70;99.90;;;;;;5042099;28;20056;-60
2022/03/22 03:50:06;;;;;;;0.00;0.00;;;4.70;99.90;;;;;;5042884;28;20423;-60
2022/03/22 03:52:34;;;;;;;0.00;0.00;;;4.70;99.90;;;;;;5043264;28;20509;-60
2022/03/22 03:55:01;;;;;;;0.00;0.00;;;4.70;99.90;;;;;;5043008;28;20037;-60
2022/03/22 03:57:27;;;;;;;0.00;0.00;;;4.70;99.90;;;;;;5041237;28;20048;-60
2022/03/22 03:59:54;;;;;;;0.00;0.00;;;6.10;99.90;;;;;;5041551;28;20041;-60
2022/03/22 04:02:21;;;;;;;0.00;0.00;;;4.70;99.90;;;;;;5051261;28;20041;-60
2022/03/22 04:04:51;;;;;;;0.00;0.00;;;4.70;99.90;;;;;;5044081;28;20238;-60
2022/03/22 04:07:18;;;;;;;0.00;0.00;;;4.70;99.90;;;;;;5042602;28;20124;-60
2022/03/22 04:09:44;;;;;;;0.00;0.00;;;4.70;99.90;;;;;;5041869;28;20045;-60
2022/03/22 04:12:12;;;;;;;0.00;0.00;;;4.70;99.90;;;;;;5041821;28;20037;-59
2022/03/22 04:14:37;;;;;;;0.00;0.00;;;4.70;99.90;;;;;;5041465;28;20041;-59
2022/03/22 04:17:04;;;;;;;0.00;0.00;;;4.70;99.90;;;;;;5042294;28;20044;-59
2022/03/22 04:19:31;;;;;;;0.00;0.00;;;4.70;99.90;;;;;;5042321;28;20040;-59
2022/03/22 04:21:56;;;;;;;0.00;0.00;;;4.70;99.90;;;;;;5041187;28;20052;-59
2022/03/22 04:24:22;;;;;;;0.00;0.00;;;4.70;99.90;;;;;;5042545;28;20037;-59
2022/03/22 04:26:48;;;;;;;0.00;0.00;;;4.70;99.90;;;;;;5041652;28;20037;-60
2022/03/22 04:34:46;;;;;;;0.00;0.00;;;4.70;99.90;;;;;;5040908;28;20045;-60
2022/03/22 04:37:13;;;;;;;0.00;0.00;;;4.80;99.90;;;;;;5041874;28;20081;-59
2022/03/22 04:39:44;;;;;;;0.00;0.00;;;4.80;99.90;;;;;;5041578;28;20434;-61
2022/03/22 04:42:10;;;;;;;0.00;0.00;;;4.80;99.90;;;;;;5041406;28;20073;-59
2022/03/22 04:44:36;;;;;;;0.00;0.00;;;6.10;99.90;;;;;;5023297;28;20041;-59
2022/03/22 04:47:02;;;;;;;0.00;0.00;;;4.90;99.90;;;;;;5041752;28;20060;-59
2022/03/22 04:49:28;;;;;;;0.00;0.00;;;4.90;99.90;;;;;;5041249;28;20045;-59
2022/03/22 04:57:24;;;;;;;0.00;0.00;;;4.80;99.90;;;;;;5041123;28;20143;-59
2022/03/22 04:59:50;;;;;;;0.00;0.00;;;4.80;99.90;;;;;;5040737;28;20045;-59
2022/03/22 05:02:16;;;;;;;0.00;0.00;;;4.80;99.90;;;;;;5049428;28;20048;-59
2022/03/22 05:04:43;;;;;;;0.00;0.00;;;5.10;99.90;;;;;;5043744;28;20037;-59
2022/03/22 05:07:09;;;;;;;0.00;0.00;;;4.70;99.90;;;;;;5041298;28;20052;-59
2022/03/22 05:09:35;;;;;;;0.00;0.00;;;4.80;99.90;;;;;;5041248;28;20115;-60
2022/03/22 05:12:02;;;;;;;0.00;0.00;;;4.80;99.90;;;;;;5039940;28;20430;-59
2022/03/22 05:14:27;;;;;;;0.00;0.00;;;4.80;99.90;;;;;;5040687;28;20053;-59
2022/03/22 05:16:56;;;;;;;0.00;0.00;;;4.70;99.90;;;;;;5041042;28;20041;-59
2022/03/22 05:19:22;;;;;;;0.00;0.00;;;4.70;99.90;;;;;;5041116;28;20130;-61
2022/03/22 05:21:47;;;;;;;0.00;0.00;;;4.80;99.90;;;;;;5040976;28;20124;-62
2022/03/22 05:24:13;;;;;;;0.00;0.00;;;4.70;99.90;;;;;;5024055;28;20064;-61
2022/03/22 05:26:38;;;;;;;0.00;0.00;;;4.80;99.90;;;;;;5041048;28;20033;-64
2022/03/22 05:29:05;;;;;;;0.00;0.00;;;4.80;99.90;;;;;;5040412;28;20061;-59
2022/03/22 05:31:32;;;;;;;0.00;0.00;;;4.80;99.90;;;;;;5041687;28;20041;-59
2022/03/22 05:34:02;;;;;;;0.00;0.00;;;4.70;99.90;;;;;;5040727;28;20095;-59
2022/03/22 05:36:27;;;;;;;0.00;0.00;;;4.70;99.90;;;;;;5041053;28;20041;-59
2022/03/22 05:38:54;;;;;;;0.00;0.00;;;4.70;99.90;;;;;;5040702;28;20041;-59
2022/03/22 05:41:20;;;;;;;0.00;0.00;;;4.80;99.90;;;;;;5040805;28;20087;-59
2022/03/22 05:43:47;;;;;;;0.00;0.00;;;4.80;99.90;;;;;;5039950;28;20515;-59
2022/03/22 05:46:15;;;;;;;0.00;0.00;;;4.90;99.90;;;;;;5040880;28;20128;-59
2022/03/22 05:48:40;;;;;;;0.00;0.00;;;4.90;99.90;;;;;;5040804;28;20052;-59
2022/03/22 05:51:06;;;;;;;0.00;0.00;;;4.90;99.90;;;;;;5041191;28;20037;-59
2022/03/22 05:53:32;;;;;;;0.00;0.00;;;5.00;99.90;;;;;;5023365;28;20134;-60
2022/03/22 05:55:58;;;;;;;0.00;0.00;;;5.00;99.90;;;;;;5040631;28;20726;-61
2022/03/22 05:58:23;;;;;;;0.00;0.00;;;5.00;99.90;;;;;;5040562;28;20553;-61
2022/03/22 06:00:49;;;;;;;0.00;0.00;;;4.90;99.90;;;;;;5041281;28;20048;-62
2022/03/22 06:03:15;;;;;;;0.00;0.00;;;5.00;99.90;;;;;;5030355;28;20099;-62
2022/03/22 06:05:42;;;;;;;0.00;0.00;;;5.00;99.90;;;;;;5040829;28;20048;-62
2022/03/22 06:08:08;;;;;;;0.00;0.00;;;5.00;99.90;;;;;;5040813;28;20056;-62
2022/03/22 06:10:34;;;;;;;0.00;0.00;;;5.00;99.90;;;;;;5044603;28;20052;-62
2022/03/22 06:13:00;;;;;;;0.00;0.00;;;5.00;99.90;;;;;;5025343;28;20057;-59
2022/03/22 06:15:28;;;;;;;0.00;0.00;;;5.00;99.90;;;;;;5044606;28;20770;-61
2022/03/22 06:17:58;;;;;;;0.00;0.00;;;5.00;99.90;;;;;;5044240;28;20985;-59
2022/03/22 06:20:38;;;;;;;0.00;0.00;;;5.10;99.90;;;;;;5044015;28;20049;-60
2022/03/22 06:23:06;;;;;;;0.00;0.00;;;5.00;99.90;;;;;;5026972;28;20075;-59
2022/03/22 06:25:34;;;;;;;0.00;0.00;;;5.00;99.90;;;;;;5044841;28;20048;-60
2022/03/22 06:28:00;;;;;;;0.00;0.00;;;5.00;99.90;;;;;;5043542;28;20049;-60
2022/03/22 06:30:26;;;;;;;0.00;0.00;;;5.10;99.90;;;;;;5044261;28;20095;-59
2022/03/22 06:32:53;;;;;;;0.10;0.10;;;5.10;99.90;;;;;;5043813;28;20057;-63
2022/03/22 06:35:21;;;;;;;0.00;0.00;;;5.20;99.90;;;;;;5044134;28;20041;-59
2022/03/22 06:37:48;;;;;;;0.00;0.00;;;5.30;99.90;;;;;;5043752;28;20494;-60
2022/03/22 06:40:16;;;;;;;0.00;0.00;;;5.30;99.90;;;;;;5044088;28;20123;-60
2022/03/22 06:42:42;;;;;;;0.00;0.00;;;5.40;99.90;;;;;;5043204;28;20048;-59
2022/03/22 06:45:10;;;;;;;0.00;0.00;;;5.50;99.90;;;;;;5025464;28;20049;-60
2022/03/22 06:47:37;;;;;;;0.00;0.00;;;6.80;99.90;;;;;;5043845;28;20119;-59
2022/03/22 06:50:03;;;;;;;0.00;0.00;;;5.60;99.90;;;;;;5044055;28;20040;-59
2022/03/22 06:52:29;;;;;;;0.00;0.00;;;5.60;99.90;;;;;;5043281;28;20045;-60
2022/03/22 06:54:55;;;;;;;0.00;0.00;;;5.70;99.90;;;;;;5025423;28;20388;-59
2022/03/22 06:57:20;;;;;;;0.00;0.00;;;5.70;99.90;;;;;;5043718;28;20064;-59
2022/03/22 06:59:46;;;;;;;0.00;0.00;;;5.80;99.90;;;;;;5042253;28;20060;-59
2022/03/22 07:02:12;;;;;;;0.00;0.00;;;5.90;99.90;;;;;;5051409;28;20072;-59
2022/03/22 07:04:37;;;;;;;0.00;0.00;;;6.00;99.90;;;;;;5046809;28;20041;-60
2022/03/22 07:07:03;;;;;;;0.00;0.00;;;6.40;99.90;;;;;;5043646;28;20052;-59
2022/03/22 07:09:29;;;;;;;0.00;0.00;;;6.30;99.90;;;;;;5042968;28;20056;-59
2022/03/22 07:11:56;;;;;;;0.10;0.10;;;6.40;99.90;;;;;;5042974;28;20036;-59
2022/03/22 07:14:26;;;;;;;0.00;0.00;;;6.50;99.90;;;;;;5042876;28;20492;-59
2022/03/22 07:16:52;;;;;;;0.00;0.00;;;6.60;99.90;;;;;;5042375;28;20496;-59
2022/03/22 07:19:20;;;;;;;0.00;0.00;;;6.60;99.90;;;;;;5043248;28;20179;-59
2022/03/22 07:21:47;;;;;;;0.17;0.17;;;6.70;99.90;;;;;;5042677;28;20041;-59
2022/03/22 07:24:14;;;;;;;0.00;0.00;;;6.80;99.90;;;;;;5025541;28;20053;-59
2022/03/22 07:26:43;;;;;;;0.00;0.00;;;6.90;99.90;;;;;;5042429;28;20497;-60
2022/03/22 07:29:09;;;;;;;0.20;0.20;;;6.90;99.90;;;;;;5042648;28;20040;-58
2022/03/22 07:31:38;;;;;;;0.52;0.20;;;7.10;99.90;;;;;;5042717;28;20404;-60
2022/03/22 07:34:09;;;;;;;1.02;0.93;;;7.20;99.90;;;;;;5042895;28;20639;-58
2022/03/22 07:36:36;;;;;;;0.00;0.00;;;7.30;99.90;;;;;;5042044;28;20110;-59
2022/03/22 07:39:03;;;;;;;0.00;0.00;;;7.40;99.90;;;;;;5042972;28;20045;-58
2022/03/22 07:41:28;;;;;;;0.20;0.20;;;7.60;99.90;;;;;;5024465;28;20056;-58
2022/03/22 07:43:54;;;;;;;0.60;0.60;;;7.50;99.90;;;;;;5044645;28;20744;-58
2022/03/22 07:46:22;;;;;;;0.98;0.85;;;7.60;99.90;;;;;;5042896;28;20048;-59
2022/03/22 07:48:47;;;;;;;0.22;0.22;;;7.70;99.90;;;;;;5042237;28;20049;-58
2022/03/22 07:53:57;;;;;;;0.20;0.20;;;8.10;99.90;;;;;;5042263;28;20053;-59
2022/03/22 07:56:23;;;;;;;0.20;0.20;;;8.00;99.90;;;;;;5042140;28;20487;-58
2022/03/22 07:58:48;;;;;;;0.00;0.00;;;8.10;99.90;;;;;;5041728;28;20674;-59
2022/03/22 08:01:14;;;;;;;0.85;0.38;;;8.30;99.90;;;;;;5027201;28;20118;-59
2022/03/22 08:03:40;;;;;;;0.10;0.10;;;8.30;99.90;;;;;;5050747;28;20053;-60
2022/03/22 08:06:07;;;;;;;0.35;0.35;;;8.60;99.90;;;;;;5041684;28;20475;-60
2022/03/22 08:08:33;;;;;;;0.10;0.10;;;8.90;99.90;;;;;;5042302;28;20065;-59
2022/03/22 08:11:00;;;;;;;1.45;0.63;;;8.60;99.90;;;;;;5041928;28;20040;-59
2022/03/22 08:13:26;;;;;;;0.15;0.15;;;8.70;99.90;;;;;;5041277;28;20407;-59
2022/03/22 08:15:52;;;;;;;0.10;0.00;;;8.90;99.90;;;;;;5023980;28;20045;-59
2022/03/22 08:18:18;;;;;;;1.45;0.28;;;9.60;99.90;;;;;;5042116;28;20049;-59
2022/03/22 08:20:43;;;;;;;0.08;0.08;;;9.10;99.90;;;;;;5042067;28;20051;-58
2022/03/22 08:23:09;;;;;;;0.35;0.35;;;9.10;99.90;;;;;;5024233;28;20045;-58
2022/03/22 08:25:37;;;;;;;0.95;0.40;;;9.30;99.90;;;;;;5023970;28;20040;-59
2022/03/22 08:28:05;;;;;;;0.88;0.47;;;9.50;99.90;;;;;;5041412;28;20055;-58
2022/03/22 08:30:32;;;;;;;1.52;0.50;;;9.60;99.90;;;;;;5042072;28;20048;-58
2022/03/22 08:32:59;;;;;;;0.00;0.00;;;10.40;99.90;;;;;;5040471;28;20076;-58
2022/03/22 08:35:26;;;;;;;0.40;0.40;;;9.90;99.90;;;;;;5042079;28;20045;-58
2022/03/22 08:37:53;;;;;;;0.47;0.47;;;10.50;99.90;;;;;;5041238;28;20053;-58
2022/03/22 08:40:20;;;;;;;0.30;0.30;;;10.30;99.90;;;;;;5041668;28;20044;-58
2022/03/22 08:42:48;;;;;;;2.13;0.82;;;10.40;99.90;;;;;;5040766;28;20040;-59
2022/03/22 08:45:16;;;;;;;0.80;0.35;;;10.60;99.90;;;;;;5041786;28;20053;-59
2022/03/22 08:47:44;;;;;;;0.20;0.20;;;10.90;99.90;;;;;;5040707;28;20042;-61
2022/03/22 08:50:12;;;;;;;0.10;0.10;;;11.00;99.90;;;;;;5041985;28;20113;-59
2022/03/22 08:52:38;;;;;;;0.75;0.32;;;11.10;99.90;;;;;;5041290;28;20045;-59
2022/03/22 08:55:07;;;;;;;0.20;0.20;;;11.30;99.90;;;;;;5041974;28;20052;-60
2022/03/22 08:57:34;;;;;;;0.30;0.20;;;11.60;99.90;;;;;;5041590;28;20423;-59
2022/03/22 08:59:59;;;;;;;0.05;0.05;;;11.60;99.90;;;;;;5041301;28;20094;-59
2022/03/22 09:02:25;;;;;;;0.32;0.25;;;12.20;99.90;;;;;;5038554;28;20056;-59
2022/03/22 09:07:35;;;;;;;0.00;0.00;;;12.20;99.90;;;;;;5048522;28;20472;-60
2022/03/22 09:10:00;;;;;;;0.00;0.00;;;12.50;99.90;;;;;;5025666;28;20093;-61
2022/03/22 09:12:26;;;;;;;0.30;0.30;;;12.70;99.90;;;;;;5030606;28;20094;-60
2022/03/22 09:14:53;;;;;;;1.65;0.60;;;13.00;99.90;;;;;;5029707;28;20500;-60
2022/03/22 09:17:20;;;;;;;0.30;0.20;;;13.40;99.90;;;;;;5030960;28;20041;-60
2022/03/22 09:19:46;;;;;;;0.57;0.57;;;13.80;99.90;;;;;;5031268;28;20047;-61
2022/03/22 09:22:14;;;;;;;1.02;0.55;;;14.00;99.90;;;;;;5030169;28;20046;-61
2022/03/22 09:24:40;;;;;;;0.40;0.20;;;14.10;99.90;;;;;;5030328;28;20129;-62
2022/03/22 09:27:05;;;;;;;0.63;0.63;;;14.30;99.90;;;;;;5031785;28;20669;-61
2022/03/22 09:29:31;;;;;;;0.40;0.17;;;14.80;99.90;;;;;;5026858;28;20083;-61
2022/03/22 09:31:57;;;;;;;0.10;0.10;;;15.30;99.90;;;;;;5020802;28;20133;-61
2022/03/22 09:34:25;;;;;;;0.63;0.63;;;15.80;99.90;;;;;;5021427;28;20053;-60
2022/03/22 09:36:52;;;;;;;0.38;0.38;;;15.80;99.90;;;;;;5020925;28;20099;-60
2022/03/22 09:39:19;;;;;;;0.00;0.00;;;15.90;99.90;;;;;;5021534;28;20068;-61
2022/03/22 09:41:48;;;;;;;0.00;0.00;;;16.10;99.90;;;;;;5023415;28;20080;-61
2022/03/22 09:44:18;;;;;;;0.00;0.00;;;16.10;99.90;;;;;;5023389;28;20523;-61
2022/03/22 09:46:48;;;;;;;0.00;0.00;;;16.60;99.90;;;;;;5024938;28;20099;-63
2022/03/22 09:49:16;;;;;;;0.00;0.00;;;16.80;99.90;;;;;;5024220;28;20057;-60
2022/03/22 09:51:46;;;;;;;0.03;0.03;;;16.40;99.90;;;;;;5024872;28;20045;-61
2022/03/22 09:54:19;;;;;;;0.00;0.00;;;16.70;99.90;;;;;;5031104;28;20343;-60
2022/03/22 09:56:46;;;;;;;3.95;0.50;;;16.70;99.90;;;;;;5041740;28;20052;-62
2022/03/22 09:59:14;;;;;;;0.10;0.10;;;16.60;99.90;;;;;;5043893;28;20080;-61
2022/03/22 10:01:40;;;;;;;0.05;0.05;;;16.90;99.90;;;;;;5038309;28;20033;-61
2022/03/22 10:04:13;;;;;;;0.00;0.00;;;17.00;99.90;;;;;;5031199;28;20125;-61
2022/03/22 10:06:51;;;;;;;0.30;0.20;;;17.10;99.90;;;;;;5024678;28;20111;-61
2022/03/22 10:09:34;;;;;;;0.20;0.20;;;17.40;99.90;;;;;;5037999;28;20137;-60
2022/03/22 10:11:59;;;;;;;0.00;0.00;;;17.50;99.90;;;;;;5044400;28;20049;-61
2022/03/22 10:14:32;;;;;;;0.00;0.00;;;17.40;99.90;;;;;;5043715;28;20540;-60
2022/03/22 10:16:58;;;;;;;0.00;0.00;;;17.40;99.90;;;;;;5026460;28;20095;-60
2022/03/22 10:19:25;;;;;;;0.00;0.00;;;17.80;99.90;;;;;;5044205;28;20182;-61
2022/03/22 10:21:53;;;;;;;0.00;0.00;;;17.70;99.90;;;;;;5043564;28;20060;-60
2022/03/22 10:24:20;;;;;;;0.00;0.00;;;17.90;99.90;;;;;;5044276;28;20151;-61
2022/03/22 10:26:47;;;;;;;0.10;0.10;;;17.90;99.90;;;;;;5042325;28;20048;-61
2022/03/22 10:29:16;;;;;;;0.52;0.52;;;17.90;99.90;;;;;;5043033;28;20056;-61
2022/03/22 10:31:43;;;;;;;0.32;0.32;;;18.00;99.90;;;;;;5043933;28;20056;-61
2022/03/22 10:34:11;;;;;;;0.28;0.22;;;17.60;99.90;;;;;;5043891;28;20083;-60
2022/03/22 10:36:38;;;;;;;0.10;0.10;;;17.60;99.90;;;;;;5043435;28;20080;-61
2022/03/22 10:39:09;;;;;;;0.10;0.10;;;17.90;99.90;;;;;;5044377;28;20107;-60
2022/03/22 10:41:41;;;;;;;0.10;0.10;;;18.40;99.90;;;;;;5043989;28;20040;-61
2022/03/22 10:44:09;;;;;;;0.00;0.00;;;18.70;99.90;;;;;;5042695;28;20053;-61
2022/03/22 10:46:36;;;;;;;0.10;0.10;;;18.30;99.90;;;;;;5025974;28;20048;-61
2022/03/22 10:49:10;;;;;;;0.20;0.10;;;18.10;99.90;;;;;;5044001;28;20167;-61
2022/03/22 10:51:50;;;;;;;0.30;0.28;;;17.40;99.90;;;;;;5024990;28;20131;-61
2022/03/22 10:54:18;;;;;;;0.43;0.20;;;17.50;99.90;;;;;;5043113;28;20060;-61
2022/03/22 10:56:48;;;;;;;0.20;0.17;;;18.20;99.90;;;;;;5043134;28;20041;-61
2022/03/22 10:59:15;;;;;;;0.00;0.00;;;18.40;99.90;;;;;;5024389;28;20146;-61
2022/03/22 11:01:43;;;;;;;0.25;0.22;;;18.70;99.90;;;;;;5028791;28;20072;-62
2022/03/22 11:04:10;;;;;;;0.03;0.03;;;19.00;99.90;;;;;;5050830;28;20415;-62
2022/03/22 11:06:38;;;;;;;1.00;0.43;;;18.20;99.90;;;;;;5042616;28;20053;-61
2022/03/22 11:09:04;;;;;;;0.22;0.10;;;18.30;99.90;;;;;;5043523;28;20399;-58
2022/03/22 11:11:31;;;;;;;0.35;0.35;;;18.50;99.90;;;;;;5025910;28;20056;-58
2022/03/22 11:13:57;;;;;;;1.10;0.65;;;18.70;99.90;;;;;;5041837;28;20071;-58
2022/03/22 11:16:26;;;;;;;0.55;0.25;;;18.30;99.90;;;;;;5042637;28;20045;-59
2022/03/22 11:18:54;;;;;;;0.20;0.20;;;18.50;99.90;;;;;;5042825;28;20045;-58
2022/03/22 11:21:19;;;;;;;0.32;0.30;;;18.40;99.90;;;;;;5025548;28;20530;-59
2022/03/22 11:23:47;;;;;;;0.80;0.80;;;18.80;99.90;;;;;;5042182;28;20045;-59
2022/03/22 11:26:17;;;;;;;0.00;0.00;;;18.90;99.90;;;;;;5041692;28;20049;-59
2022/03/22 11:28:45;;;;;;;0.10;0.10;;;19.10;99.90;;;;;;5041955;28;20045;-61
2022/03/22 11:31:13;;;;;;;0.10;0.05;;;19.40;99.90;;;;;;5041309;28;20741;-59
2022/03/22 11:36:28;;;;;;;1.00;0.10;;;20.00;99.90;;;;;;5042390;28;20052;-59
2022/03/22 11:38:58;;;;;;;0.30;0.30;;;20.10;99.90;;;;;;5042588;28;20418;-58
2022/03/22 11:44:27;;;;;;;0.00;0.00;;;20.00;99.90;;;;;;5042368;28;20045;-59
2022/03/22 11:47:15;;;;;;;0.10;0.10;;;19.90;99.90;;;;;;5051906;28;20040;-59
2022/03/22 11:49:48;;;;;;;0.28;0.25;;;19.40;99.90;;;;;;5062189;28;20102;-58
2022/03/22 11:52:15;;;;;;;0.15;0.15;;;19.60;99.90;;;;;;5044694;28;20462;-57
2022/03/22 11:55:04;;;;;;;0.32;0.28;;;19.10;99.90;;;;;;5061848;28;20102;-58
2022/03/22 11:57:40;;;;;;;0.52;0.10;;;18.90;99.90;;;;;;5061907;28;20044;-58
2022/03/22 12:00:06;;;;;;;1.05;0.90;;;18.60;99.90;;;;;;5062012;28;20045;-60
2022/03/22 12:02:32;;;;;;;0.17;0.13;;;19.00;99.90;;;;;;5056106;28;20049;-61
2022/03/22 12:05:00;;;;;;;0.10;0.10;;;19.30;99.90;;;;;;5042420;28;20059;-59
2022/03/22 12:07:30;;;;;;;1.10;0.30;;;19.40;99.90;;;;;;5041542;28;20045;-60
2022/03/22 12:10:13;;;;;;;0.88;0.55;;;19.50;99.90;;;;;;5023372;28;20067;-60
2022/03/22 12:12:43;;;;;;;0.15;0.10;;;19.70;99.90;;;;;;5040851;28;20137;-62
2022/03/22 12:15:10;;;;;;;0.52;0.20;;;19.70;99.60;;;;;;5041809;28;20423;-61
2022/03/22 12:17:37;;;;;;;0.10;0.10;;;19.50;99.50;;;;;;5041648;28;20131;-61
2022/03/22 12:20:09;;;;;;;0.40;0.13;;;19.70;99.90;;;;;;5042161;28;20427;-60
2022/03/22 12:22:40;;;;;;;0.00;0.00;;;19.60;99.90;;;;;;5041147;28;20056;-62
2022/03/22 12:25:06;;;;;;;0.30;0.30;;;19.90;99.90;;;;;;5040428;28;20052;-60
2022/03/22 12:27:32;;;;;;;0.00;0.00;;;19.50;99.40;;;;;;5041325;28;20045;-60
2022/03/22 12:29:57;;;;;;;0.00;0.00;;;19.70;99.20;;;;;;5040576;28;20514;-60
2022/03/22 12:32:27;;;;;;;0.00;0.00;;;19.80;99.90;;;;;;5041572;28;20045;-61
2022/03/22 12:34:53;;;;;;;0.00;0.00;;;19.90;99.90;;;;;;5040837;28;20055;-61
2022/03/22 12:37:19;;;;;;;0.10;0.10;;;20.10;99.90;;;;;;5041326;28;20053;-61
2022/03/22 12:39:46;;;;;;;0.05;0.03;;;20.10;99.50;;;;;;5039625;28;20045;-62
2022/03/22 12:42:14;;;;;;;0.20;0.20;;;20.10;99.80;;;;;;5040921;28;20403;-61
2022/03/22 12:44:40;;;;;;;0.60;0.55;;;19.80;99.40;;;;;;5041376;28;20085;-62
2022/03/22 12:47:07;;;;;;;0.65;0.65;;;19.30;99.70;;;;;;5040804;28;20049;-61
2022/03/22 12:49:35;;;;;;;0.20;0.20;;;19.50;99.90;;;;;;5041643;28;20073;-61
2022/03/22 12:52:02;;;;;;;0.55;0.52;;;19.70;99.90;;;;;;5023706;28;20060;-61
2022/03/22 12:54:46;;;;;;;0.00;0.00;;;19.60;99.70;;;;;;5041027;28;20045;-61
2022/03/22 12:57:14;;;;;;;1.13;0.75;;;19.50;99.70;;;;;;5040194;28;20033;-62
2022/03/22 12:59:41;;;;;;;0.57;0.20;;;19.30;99.30;;;;;;5040767;28;20045;-61
2022/03/22 13:02:07;;;;;;;0.63;0.60;;;19.40;99.80;;;;;;5047601;28;20040;-61
2022/03/22 13:04:46;;;;;;;0.10;0.05;;;19.30;99.50;;;;;;5045875;28;20041;-60
2022/03/22 13:07:24;;;;;;;0.40;0.40;;;19.50;99.90;;;;;;5040773;28;20063;-61
2022/03/22 13:12:35;;;;;;;0.10;0.10;;;19.60;99.40;;;;;;5039572;28;20057;-62
2022/03/22 13:15:13;;;;;;;0.00;0.00;;;19.90;99.90;;;;;;5041203;28;20041;-61
2022/03/22 13:17:48;;;;;;;0.32;0.25;;;19.90;99.90;;;;;;5042152;28;20450;-63
2022/03/22 13:20:21;;;;;;;0.00;0.00;;;20.00;99.90;;;;;;5047213;28;20056;-61
2022/03/22 13:23:01;;;;;;;0.28;0.25;;;20.20;99.90;;;;;;5047360;28;20049;-61
2022/03/22 13:25:30;;;;;;;0.13;0.13;;;20.30;99.40;;;;;;5029138;28;20053;-61
2022/03/22 13:28:01;;;;;;;0.13;0.13;;;20.20;99.10;;;;;;5045120;28;20036;-61